sensor_id;sensor_type;location;lat;lon;timestamp;pressure;altitude;pressure_sealevel;temperature;humidity
76052;BME280;64751;48.708;9.710;2023-07-31T14:32:34;97214.25;;;20.71;55.79
76052;BME280;64751;48.708;9.710;2023-07-31T14:35:03;97212.25;;;20.68;54.91
76052;BME280;64751;48.708;9.710;2023-07-31T14:37:37;97205.03;;;20.72;54.78
76052;BME280;64751;48.708;9.710;2023-07-31T14:40:08;97212.16;;;20.80;58.52
76052;BME280;64751;48.708;9.710;2023-07-31T14:42:40;97209.59;;;20.87;57.42
76052;BME280;64751;48.708;9.710;2023-07-31T14:45:10;97197.09;;;20.94;56.36
76052;BME280;64751;48.708;9.710;2023-07-31T14:47:39;97202.63;;;21.02;55.17
76052;BME280;64751;48.708;9.710;2023-07-31T14:50:08;97198.22;;;21.09;54.42
76052;BME280;64751;48.708;9.710;2023-07-31T14:52:35;97199.91;;;21.17;55.06
76052;BME280;64751;48.708;9.710;2023-07-31T14:55:03;97200.75;;;21.21;54.65
76052;BME280;64751;48.708;9.710;2023-07-31T14:57:31;97192.78;;;21.25;53.91
76052;BME280;64751;48.708;9.710;2023-07-31T14:59:59;97192.84;;;21.28;54.65
76052;BME280;64751;48.708;9.710;2023-07-31T15:02:26;97188.53;;;21.24;54.00
76052;BME280;64751;48.708;9.710;2023-07-31T15:04:56;97192.44;;;21.26;54.08
76052;BME280;64751;48.708;9.710;2023-07-31T15:07:23;97183.16;;;21.24;53.71
76052;BME280;64751;48.708;9.710;2023-07-31T15:09:51;97174.41;;;21.27;54.31
76052;BME280;64751;48.708;9.710;2023-07-31T15:12:18;97172.84;;;21.26;55.00
76052;BME280;64751;48.708;9.710;2023-07-31T15:14:48;97166.34;;;21.27;54.46
76052;BME280;64751;48.708;9.710;2023-07-31T15:17:16;97161.31;;;21.25;54.31
76052;BME280;64751;48.708;9.710;2023-07-31T15:19:44;97162.59;;;21.31;55.11
76052;BME280;64751;48.708;9.710;2023-07-31T15:22:13;97161.88;;;21.34;56.46
76052;BME280;64751;48.708;9.710;2023-07-31T15:24:40;97164.91;;;21.33;54.82
76052;BME280;64751;48.708;9.710;2023-07-31T15:27:08;97166.81;;;21.32;54.74
76052;BME280;64751;48.708;9.710;2023-07-31T15:29:36;97155.94;;;21.25;54.81
76052;BME280;64751;48.708;9.710;2023-07-31T15:32:04;97154.41;;;21.24;55.06
76052;BME280;64751;48.708;9.710;2023-07-31T15:34:32;97157.00;;;21.21;54.89
76052;BME280;64751;48.708;9.710;2023-07-31T15:37:00;97155.47;;;21.20;55.77
76052;BME280;64751;48.708;9.710;2023-07-31T15:39:29;97160.84;;;21.20;55.05
76052;BME280;64751;48.708;9.710;2023-07-31T15:41:56;97150.88;;;21.20;55.51
76052;BME280;64751;48.708;9.710;2023-07-31T15:44:24;97144.63;;;21.16;55.37
76052;BME280;64751;48.708;9.710;2023-07-31T15:46:52;97136.56;;;21.16;54.11
76052;BME280;64751;48.708;9.710;2023-07-31T15:49:19;97135.03;;;21.15;53.68
76052;BME280;64751;48.708;9.710;2023-07-31T15:51:47;97141.94;;;21.16;53.04
76052;BME280;64751;48.708;9.710;2023-07-31T15:54:15;97128.19;;;21.18;52.29
76052;BME280;64751;48.708;9.710;2023-07-31T15:56:44;97130.22;;;21.24;52.93
76052;BME280;64751;48.708;9.710;2023-07-31T15:59:11;97118.78;;;21.27;52.30
76052;BME280;64751;48.708;9.710;2023-07-31T16:01:39;97128.78;;;21.30;51.27
76052;BME280;64751;48.708;9.710;2023-07-31T16:04:07;97119.25;;;21.33;51.98
76052;BME280;64751;48.708;9.710;2023-07-31T16:06:35;97117.34;;;21.33;52.41
76052;BME280;64751;48.708;9.710;2023-07-31T16:09:05;97118.97;;;21.38;53.19
76052;BME280;64751;48.708;9.710;2023-07-31T16:11:33;97119.03;;;21.41;52.08
76052;BME280;64751;48.708;9.710;2023-07-31T16:14:02;97107.97;;;21.46;52.67
76052;BME280;64751;48.708;9.710;2023-07-31T16:16:32;97103.53;;;21.54;51.19
76052;BME280;64751;48.708;9.710;2023-07-31T16:19:02;97101.38;;;21.63;50.77
76052;BME280;64751;48.708;9.710;2023-07-31T16:21:30;97103.53;;;21.77;51.72
76052;BME280;64751;48.708;9.710;2023-07-31T16:23:58;97091.78;;;21.85;51.83
76052;BME280;64751;48.708;9.710;2023-07-31T16:26:26;97092.22;;;21.90;51.96
76052;BME280;64751;48.708;9.710;2023-07-31T16:28:53;97096.06;;;21.89;51.12
76052;BME280;64751;48.708;9.710;2023-07-31T16:31:25;97096.84;;;21.90;50.54
76052;BME280;64751;48.708;9.710;2023-07-31T16:33:57;97092.97;;;21.87;50.53
76052;BME280;64751;48.708;9.710;2023-07-31T16:36:25;97082.03;;;21.77;52.39
76052;BME280;64751;48.708;9.710;2023-07-31T16:38:56;97088.09;;;21.74;51.83
76052;BME280;64751;48.708;9.710;2023-07-31T16:41:24;97082.66;;;21.70;52.25
76052;BME280;64751;48.708;9.710;2023-07-31T16:43:55;97074.19;;;21.68;52.08
76052;BME280;64751;48.708;9.710;2023-07-31T16:46:24;97077.88;;;21.60;52.67
76052;BME280;64751;48.708;9.710;2023-07-31T16:48:52;97065.53;;;21.55;52.47
76052;BME280;64751;48.708;9.710;2023-07-31T16:51:22;97057.41;;;21.52;53.12
76052;BME280;64751;48.708;9.710;2023-07-31T16:53:52;97056.22;;;21.49;52.41
76052;BME280;64751;48.708;9.710;2023-07-31T16:56:24;97053.53;;;21.49;52.49
76052;BME280;64751;48.708;9.710;2023-07-31T16:58:54;97057.72;;;21.47;53.01
76052;BME280;64751;48.708;9.710;2023-07-31T17:01:24;97058.41;;;21.44;53.34
76052;BME280;64751;48.708;9.710;2023-07-31T17:03:56;97061.09;;;21.44;53.30
76052;BME280;64751;48.708;9.710;2023-07-31T17:06:26;97073.00;;;21.43;52.96
76052;BME280;64751;48.708;9.710;2023-07-31T17:08:56;97068.34;;;21.40;53.18
76052;BME280;64751;48.708;9.710;2023-07-31T17:11:24;97057.81;;;21.31;52.91
76052;BME280;64751;48.708;9.710;2023-07-31T17:13:52;97071.66;;;21.33;53.80
76052;BME280;64751;48.708;9.710;2023-07-31T17:16:25;97058.91;;;21.27;53.60
76052;BME280;64751;48.708;9.710;2023-07-31T17:18:59;97067.94;;;21.19;53.56
76052;BME280;64751;48.708;9.710;2023-07-31T17:21:28;97053.63;;;21.11;54.36
76052;BME280;64751;48.708;9.710;2023-07-31T17:23:58;97059.69;;;21.08;53.89
76052;BME280;64751;48.708;9.710;2023-07-31T17:26:26;97057.00;;;21.08;54.81
76052;BME280;64751;48.708;9.710;2023-07-31T17:28:54;97064.47;;;20.99;55.29
76052;BME280;64751;48.708;9.710;2023-07-31T17:31:22;97059.81;;;20.96;55.94
76052;BME280;64751;48.708;9.710;2023-07-31T17:33:50;97065.50;;;20.91;55.87
76052;BME280;64751;48.708;9.710;2023-07-31T17:36:23;97058.13;;;20.88;55.48
76052;BME280;64751;48.708;9.710;2023-07-31T17:38:52;97048.88;;;20.85;55.67
76052;BME280;64751;48.708;9.710;2023-07-31T17:41:20;97048.88;;;20.85;56.58
76052;BME280;64751;48.708;9.710;2023-07-31T17:43:50;97037.34;;;20.85;56.66
76052;BME280;64751;48.708;9.710;2023-07-31T17:46:18;97043.88;;;20.84;57.17
76052;BME280;64751;48.708;9.710;2023-07-31T17:48:45;97042.66;;;20.81;57.35
76052;BME280;64751;48.708;9.710;2023-07-31T17:51:15;97050.66;;;20.78;56.65
76052;BME280;64751;48.708;9.710;2023-07-31T17:53:43;97051.78;;;20.77;57.49
76052;BME280;64751;48.708;9.710;2023-07-31T17:56:11;97047.06;;;20.70;57.32
76052;BME280;64751;48.708;9.710;2023-07-31T17:58:39;97047.41;;;20.69;58.18
76052;BME280;64751;48.708;9.710;2023-07-31T18:01:06;97041.16;;;20.65;58.94
76052;BME280;64751;48.708;9.710;2023-07-31T18:03:34;97039.53;;;20.60;59.89
76052;BME280;64751;48.708;9.710;2023-07-31T18:06:02;97036.75;;;20.53;61.40
76052;BME280;64751;48.708;9.710;2023-07-31T18:08:31;97041.09;;;20.42;62.33
76052;BME280;64751;48.708;9.710;2023-07-31T18:10:58;97038.34;;;20.39;58.96
76052;BME280;64751;48.708;9.710;2023-07-31T18:13:26;97042.06;;;20.34;59.85
76052;BME280;64751;48.708;9.710;2023-07-31T18:15:53;97045.91;;;20.33;61.98
76052;BME280;64751;48.708;9.710;2023-07-31T18:18:21;97043.41;;;20.24;64.51
76052;BME280;64751;48.708;9.710;2023-07-31T18:20:49;97043.50;;;20.12;66.09
76052;BME280;64751;48.708;9.710;2023-07-31T18:23:16;97049.06;;;20.04;67.08
76052;BME280;64751;48.708;9.710;2023-07-31T18:25:46;97044.16;;;19.90;68.03
76052;BME280;64751;48.708;9.710;2023-07-31T18:28:14;97050.88;;;19.84;68.85
76052;BME280;64751;48.708;9.710;2023-07-31T18:30:41;97039.13;;;19.73;69.40
76052;BME280;64751;48.708;9.710;2023-07-31T18:33:09;97040.53;;;19.67;69.68
76052;BME280;64751;48.708;9.710;2023-07-31T18:35:37;97035.00;;;19.60;71.59
76052;BME280;64751;48.708;9.710;2023-07-31T18:38:06;97029.47;;;19.69;79.55
76052;BME280;64751;48.708;9.710;2023-07-31T18:40:33;97029.50;;;20.03;100.00
76052;BME280;64751;48.708;9.710;2023-07-31T18:43:02;97043.28;;;20.37;100.00
76052;BME280;64751;48.708;9.710;2023-07-31T18:45:32;97035.44;;;20.47;100.00
76052;BME280;64751;48.708;9.710;2023-07-31T18:47:59;97037.50;;;20.54;100.00
76052;BME280;64751;48.708;9.710;2023-07-31T18:50:28;97042.94;;;20.57;100.00
76052;BME280;64751;48.708;9.710;2023-07-31T18:52:55;97039.22;;;20.62;100.00
76052;BME280;64751;48.708;9.710;2023-07-31T18:55:23;97043.44;;;20.63;100.00
76052;BME280;64751;48.708;9.710;2023-07-31T18:57:51;97035.09;;;20.68;100.00
76052;BME280;64751;48.708;9.710;2023-07-31T19:00:21;97037.31;;;20.62;100.00
76052;BME280;64751;48.708;9.710;2023-07-31T19:02:48;97028.53;;;20.65;100.00
76052;BME280;64751;48.708;9.710;2023-07-31T19:05:16;97034.69;;;20.66;100.00
76052;BME280;64751;48.708;9.710;2023-07-31T19:07:44;97030.44;;;20.65;100.00
76052;BME280;64751;48.708;9.710;2023-07-31T19:10:12;97033.06;;;20.61;100.00
76052;BME280;64751;48.708;9.710;2023-07-31T19:12:39;97027.19;;;20.56;100.00
76052;BME280;64751;48.708;9.710;2023-07-31T19:15:07;97027.63;;;20.58;100.00
76052;BME280;64751;48.708;9.710;2023-07-31T19:17:37;97037.50;;;20.54;100.00
76052;BME280;64751;48.708;9.710;2023-07-31T19:20:07;97046.28;;;20.51;100.00
76052;BME280;64751;48.708;9.710;2023-07-31T19:22:34;97048.09;;;20.47;100.00
76052;BME280;64751;48.708;9.710;2023-07-31T19:25:02;97036.94;;;20.45;100.00
76052;BME280;64751;48.708;9.710;2023-07-31T19:27:30;97050.34;;;20.45;100.00
76052;BME280;64751;48.708;9.710;2023-07-31T19:29:57;97037.84;;;20.33;100.00
76052;BME280;64751;48.708;9.710;2023-07-31T19:32:25;97047.72;;;20.29;100.00
76052;BME280;64751;48.708;9.710;2023-07-31T19:34:53;97039.34;;;20.31;100.00
76052;BME280;64751;48.708;9.710;2023-07-31T19:37:21;97039.59;;;20.26;100.00
76052;BME280;64751;48.708;9.710;2023-07-31T19:39:49;97039.50;;;20.22;100.00
76052;BME280;64751;48.708;9.710;2023-07-31T19:42:18;97036.97;;;19.94;100.00
76052;BME280;64751;48.708;9.710;2023-07-31T19:44:46;97030.25;;;19.69;99.85
76052;BME280;64751;48.708;9.710;2023-07-31T19:47:13;97040.91;;;19.50;98.27
76052;BME280;64751;48.708;9.710;2023-07-31T19:49:41;97041.75;;;19.38;98.45
76052;BME280;64751;48.708;9.710;2023-07-31T19:52:10;97038.31;;;19.26;97.54
76052;BME280;64751;48.708;9.710;2023-07-31T19:54:37;97033.84;;;19.14;99.48
76052;BME280;64751;48.708;9.710;2023-07-31T19:57:05;97034.75;;;19.06;99.74
76052;BME280;64751;48.708;9.710;2023-07-31T19:59:33;97041.94;;;19.02;100.00
76052;BME280;64751;48.708;9.710;2023-07-31T20:02:00;97034.50;;;18.96;100.00
76052;BME280;64751;48.708;9.710;2023-07-31T20:04:28;97030.16;;;18.91;100.00
76052;BME280;64751;48.708;9.710;2023-07-31T20:06:55;97024.84;;;18.79;94.14
76052;BME280;64751;48.708;9.710;2023-07-31T20:09:24;97031.94;;;18.71;93.38
76052;BME280;64751;48.708;9.710;2023-07-31T20:11:52;97035.50;;;18.63;92.61
76052;BME280;64751;48.708;9.710;2023-07-31T20:14:21;97025.31;;;18.53;92.48
76052;BME280;64751;48.708;9.710;2023-07-31T20:16:49;97040.22;;;18.54;92.17
76052;BME280;64751;48.708;9.710;2023-07-31T20:19:17;97042.69;;;18.47;92.78
76052;BME280;64751;48.708;9.710;2023-07-31T20:21:44;97027.53;;;18.39;92.46
76052;BME280;64751;48.708;9.710;2023-07-31T20:24:12;97033.69;;;18.40;92.73
76052;BME280;64751;48.708;9.710;2023-07-31T20:26:41;97030.88;;;18.36;92.96
76052;BME280;64751;48.708;9.710;2023-07-31T20:29:08;97045.03;;;18.37;93.23
76052;BME280;64751;48.708;9.710;2023-07-31T20:31:36;97029.66;;;18.34;92.96
76052;BME280;64751;48.708;9.710;2023-07-31T20:34:06;97035.72;;;18.31;92.74
76052;BME280;64751;48.708;9.710;2023-07-31T20:36:37;97028.69;;;18.26;92.61
76052;BME280;64751;48.708;9.710;2023-07-31T20:39:05;97027.13;;;18.25;93.21
76052;BME280;64751;48.708;9.710;2023-07-31T20:41:34;97019.09;;;18.25;93.19
76052;BME280;64751;48.708;9.710;2023-07-31T20:44:04;97020.25;;;18.24;93.10
76052;BME280;64751;48.708;9.710;2023-07-31T20:46:32;97026.38;;;18.25;92.95
76052;BME280;64751;48.708;9.710;2023-07-31T20:48:59;97013.31;;;18.23;93.00
76052;BME280;64751;48.708;9.710;2023-07-31T20:51:29;96995.63;;;18.19;92.18
76052;BME280;64751;48.708;9.710;2023-07-31T20:53:58;96984.63;;;18.08;92.93
76052;BME280;64751;48.708;9.710;2023-07-31T20:56:26;96992.88;;;18.03;93.70
76052;BME280;64751;48.708;9.710;2023-07-31T20:58:53;97002.91;;;18.06;94.13
76052;BME280;64751;48.708;9.710;2023-07-31T21:01:22;96992.88;;;18.03;93.82
76052;BME280;64751;48.708;9.710;2023-07-31T21:03:50;96996.09;;;18.08;93.50
76052;BME280;64751;48.708;9.710;2023-07-31T21:06:22;96980.06;;;18.08;93.66
76052;BME280;64751;48.708;9.710;2023-07-31T21:08:51;96983.19;;;18.10;93.23
76052;BME280;64751;48.708;9.710;2023-07-31T21:11:19;96971.72;;;18.10;92.99
76052;BME280;64751;48.708;9.710;2023-07-31T21:13:47;96965.56;;;18.09;93.14
76052;BME280;64751;48.708;9.710;2023-07-31T21:16:16;96957.25;;;18.11;93.23
76052;BME280;64751;48.708;9.710;2023-07-31T21:18:46;96943.41;;;18.09;93.22
76052;BME280;64751;48.708;9.710;2023-07-31T21:21:13;96946.44;;;18.07;93.47
76052;BME280;64751;48.708;9.710;2023-07-31T21:23:41;96939.63;;;18.10;93.11
76052;BME280;64751;48.708;9.710;2023-07-31T21:26:09;96944.97;;;18.10;93.16
76052;BME280;64751;48.708;9.710;2023-07-31T21:28:36;96932.41;;;18.10;93.16
76052;BME280;64751;48.708;9.710;2023-07-31T21:31:10;96927.84;;;18.11;93.30
76052;BME280;64751;48.708;9.710;2023-07-31T21:33:38;96929.72;;;18.10;93.32
76052;BME280;64751;48.708;9.710;2023-07-31T21:36:07;96915.59;;;18.10;93.20
76052;BME280;64751;48.708;9.710;2023-07-31T21:38:35;96885.78;;;17.96;93.40
76052;BME280;64751;48.708;9.710;2023-07-31T21:41:02;96897.53;;;18.07;93.38
76052;BME280;64751;48.708;9.710;2023-07-31T21:43:30;96896.78;;;18.06;92.63
76052;BME280;64751;48.708;9.710;2023-07-31T21:45:58;96890.03;;;17.97;92.65
76052;BME280;64751;48.708;9.710;2023-07-31T21:48:25;96894.81;;;17.91;92.32
76052;BME280;64751;48.708;9.710;2023-07-31T21:50:53;96882.59;;;17.90;92.32
76052;BME280;64751;48.708;9.710;2023-07-31T21:53:22;96885.34;;;17.94;92.05
76052;BME280;64751;48.708;9.710;2023-07-31T21:55:50;96867.22;;;17.87;92.12
76052;BME280;64751;48.708;9.710;2023-07-31T21:58:17;96867.78;;;17.93;92.64
